sensor_id;sensor_type;location;lat;lon;timestamp;pressure;altitude;pressure_sealevel;temperature;humidity
20394;BME280;10356;50.544;9.642;2022-08-21T00:02:26;98343.41;;;17.76;100.00
20394;BME280;10356;50.544;9.642;2022-08-21T00:04:54;98338.13;;;17.68;100.00
20394;BME280;10356;50.544;9.642;2022-08-21T00:07:21;98328.38;;;17.60;100.00
20394;BME280;10356;50.544;9.642;2022-08-21T00:09:47;98331.84;;;17.52;100.00
20394;BME280;10356;50.544;9.642;2022-08-21T00:12:15;98332.09;;;17.41;100.00
20394;BME280;10356;50.544;9.642;2022-08-21T00:14:42;98331.41;;;17.39;100.00
20394;BME280;10356;50.544;9.642;2022-08-21T00:17:08;98328.28;;;17.36;100.00
20394;BME280;10356;50.544;9.642;2022-08-21T00:19:35;98331.72;;;17.28;100.00
20394;BME280;10356;50.544;9.642;2022-08-21T00:22:02;98333.34;;;17.29;100.00
20394;BME280;10356;50.544;9.642;2022-08-21T00:24:28;98332.50;;;17.21;100.00
20394;BME280;10356;50.544;9.642;2022-08-21T00:26:56;98337.91;;;17.19;100.00
20394;BME280;10356;50.544;9.642;2022-08-21T00:29:25;98336.59;;;17.15;100.00
20394;BME280;10356;50.544;9.642;2022-08-21T00:31:51;98329.97;;;17.11;100.00
20394;BME280;10356;50.544;9.642;2022-08-21T00:34:18;98332.44;;;17.05;100.00
20394;BME280;10356;50.544;9.642;2022-08-21T00:36:45;98326.13;;;16.98;100.00
20394;BME280;10356;50.544;9.642;2022-08-21T00:39:11;98335.50;;;16.92;100.00
20394;BME280;10356;50.544;9.642;2022-08-21T00:41:38;98327.75;;;16.91;100.00
20394;BME280;10356;50.544;9.642;2022-08-21T00:44:07;98329.84;;;16.87;100.00
20394;BME280;10356;50.544;9.642;2022-08-21T00:46:36;98321.63;;;16.82;100.00
20394;BME280;10356;50.544;9.642;2022-08-21T00:49:03;98324.53;;;16.79;100.00
20394;BME280;10356;50.544;9.642;2022-08-21T00:51:36;98324.19;;;16.74;100.00
20394;BME280;10356;50.544;9.642;2022-08-21T00:54:04;98316.59;;;16.71;100.00
20394;BME280;10356;50.544;9.642;2022-08-21T00:56:31;98314.31;;;16.68;100.00
20394;BME280;10356;50.544;9.642;2022-08-21T00:58:58;98311.97;;;16.65;100.00
20394;BME280;10356;50.544;9.642;2022-08-21T01:01:26;98309.66;;;16.62;100.00
20394;BME280;10356;50.544;9.642;2022-08-21T01:03:54;98309.00;;;16.60;100.00
20394;BME280;10356;50.544;9.642;2022-08-21T01:06:20;98310.94;;;16.58;100.00
20394;BME280;10356;50.544;9.642;2022-08-21T01:08:47;98309.91;;;16.51;100.00
20394;BME280;10356;50.544;9.642;2022-08-21T01:11:14;98311.00;;;16.48;100.00
20394;BME280;10356;50.544;9.642;2022-08-21T01:13:42;98316.56;;;16.45;100.00
20394;BME280;10356;50.544;9.642;2022-08-21T01:16:13;98314.09;;;16.44;100.00
20394;BME280;10356;50.544;9.642;2022-08-21T01:18:40;98303.88;;;16.41;100.00
20394;BME280;10356;50.544;9.642;2022-08-21T01:21:10;98313.44;;;16.42;100.00
20394;BME280;10356;50.544;9.642;2022-08-21T01:23:39;98319.66;;;16.41;100.00
20394;BME280;10356;50.544;9.642;2022-08-21T01:26:06;98312.09;;;16.38;100.00
20394;BME280;10356;50.544;9.642;2022-08-21T01:28:42;98318.31;;;16.37;100.00
20394;BME280;10356;50.544;9.642;2022-08-21T01:31:12;98314.34;;;16.33;100.00
20394;BME280;10356;50.544;9.642;2022-08-21T01:33:40;98306.78;;;16.30;100.00
20394;BME280;10356;50.544;9.642;2022-08-21T01:36:09;98312.66;;;16.24;100.00
20394;BME280;10356;50.544;9.642;2022-08-21T01:38:35;98310.31;;;16.21;100.00
20394;BME280;10356;50.544;9.642;2022-08-21T01:41:02;98314.88;;;16.19;100.00
20394;BME280;10356;50.544;9.642;2022-08-21T01:43:28;98317.16;;;16.14;100.00
20394;BME280;10356;50.544;9.642;2022-08-21T01:45:55;98318.56;;;16.08;100.00
20394;BME280;10356;50.544;9.642;2022-08-21T01:48:21;98322.63;;;16.03;100.00
20394;BME280;10356;50.544;9.642;2022-08-21T01:50:48;98315.88;;;16.00;100.00
20394;BME280;10356;50.544;9.642;2022-08-21T01:53:16;98315.50;;;15.95;100.00
20394;BME280;10356;50.544;9.642;2022-08-21T01:55:42;98316.78;;;15.91;100.00
20394;BME280;10356;50.544;9.642;2022-08-21T01:58:09;98319.84;;;15.86;100.00
20394;BME280;10356;50.544;9.642;2022-08-21T02:00:36;98319.19;;;15.84;100.00
20394;BME280;10356;50.544;9.642;2022-08-21T02:03:03;98326.56;;;15.81;100.00
20394;BME280;10356;50.544;9.642;2022-08-21T02:05:29;98320.78;;;15.77;100.00
20394;BME280;10356;50.544;9.642;2022-08-21T02:07:57;98320.09;;;15.75;100.00
20394;BME280;10356;50.544;9.642;2022-08-21T02:10:27;98320.38;;;15.72;100.00
20394;BME280;10356;50.544;9.642;2022-08-21T02:12:54;98319.53;;;15.72;100.00
20394;BME280;10356;50.544;9.642;2022-08-21T02:15:22;98321.38;;;15.71;100.00
20394;BME280;10356;50.544;9.642;2022-08-21T02:17:51;98315.44;;;15.69;100.00
20394;BME280;10356;50.544;9.642;2022-08-21T02:20:20;98318.34;;;15.66;100.00
20394;BME280;10356;50.544;9.642;2022-08-21T02:22:47;98309.78;;;15.64;100.00
20394;BME280;10356;50.544;9.642;2022-08-21T02:25:15;98312.41;;;15.64;100.00
20394;BME280;10356;50.544;9.642;2022-08-21T02:27:45;98305.81;;;15.60;100.00
20394;BME280;10356;50.544;9.642;2022-08-21T02:30:14;98303.19;;;15.60;100.00
20394;BME280;10356;50.544;9.642;2022-08-21T02:32:41;98302.13;;;15.53;100.00
20394;BME280;10356;50.544;9.642;2022-08-21T02:35:08;98298.84;;;15.51;100.00
20394;BME280;10356;50.544;9.642;2022-08-21T02:37:42;98297.47;;;15.47;100.00
20394;BME280;10356;50.544;9.642;2022-08-21T02:40:10;98294.47;;;15.42;100.00
20394;BME280;10356;50.544;9.642;2022-08-21T02:42:37;98297.47;;;15.38;100.00
20394;BME280;10356;50.544;9.642;2022-08-21T02:45:06;98293.06;;;15.38;100.00
20394;BME280;10356;50.544;9.642;2022-08-21T02:47:33;98291.72;;;15.34;100.00
20394;BME280;10356;50.544;9.642;2022-08-21T02:49:59;98296.72;;;15.28;100.00
20394;BME280;10356;50.544;9.642;2022-08-21T02:52:26;98300.31;;;15.27;100.00
20394;BME280;10356;50.544;9.642;2022-08-21T02:54:52;98293.25;;;15.27;100.00
20394;BME280;10356;50.544;9.642;2022-08-21T02:57:19;98292.56;;;15.25;100.00
20394;BME280;10356;50.544;9.642;2022-08-21T02:59:45;98285.97;;;15.21;100.00
20394;BME280;10356;50.544;9.642;2022-08-21T03:02:13;98286.44;;;15.17;100.00
20394;BME280;10356;50.544;9.642;2022-08-21T03:04:40;98291.53;;;15.18;100.00
20394;BME280;10356;50.544;9.642;2022-08-21T03:07:06;98287.78;;;15.21;100.00
20394;BME280;10356;50.544;9.642;2022-08-21T03:09:33;98278.56;;;15.17;100.00
20394;BME280;10356;50.544;9.642;2022-08-21T03:11:59;98288.50;;;15.13;100.00
20394;BME280;10356;50.544;9.642;2022-08-21T03:14:26;98288.81;;;15.10;100.00
20394;BME280;10356;50.544;9.642;2022-08-21T03:16:52;98289.91;;;15.07;100.00
20394;BME280;10356;50.544;9.642;2022-08-21T03:19:20;98290.91;;;15.06;100.00
20394;BME280;10356;50.544;9.642;2022-08-21T03:21:46;98288.72;;;15.02;100.00
20394;BME280;10356;50.544;9.642;2022-08-21T03:24:13;98286.34;;;14.99;100.00
20394;BME280;10356;50.544;9.642;2022-08-21T03:26:39;98288.75;;;14.92;100.00
20394;BME280;10356;50.544;9.642;2022-08-21T03:29:06;98287.41;;;14.88;100.00
20394;BME280;10356;50.544;9.642;2022-08-21T03:31:32;98289.75;;;14.82;100.00
20394;BME280;10356;50.544;9.642;2022-08-21T03:33:59;98293.34;;;14.81;100.00
20394;BME280;10356;50.544;9.642;2022-08-21T03:36:27;98296.41;;;14.76;100.00
20394;BME280;10356;50.544;9.642;2022-08-21T03:38:53;98301.09;;;14.73;100.00
20394;BME280;10356;50.544;9.642;2022-08-21T03:41:21;98303.03;;;14.71;100.00
20394;BME280;10356;50.544;9.642;2022-08-21T03:43:47;98304.97;;;14.69;100.00
20394;BME280;10356;50.544;9.642;2022-08-21T03:46:14;98303.63;;;14.65;100.00
20394;BME280;10356;50.544;9.642;2022-08-21T03:48:41;98308.84;;;14.65;100.00
20394;BME280;10356;50.544;9.642;2022-08-21T03:51:07;98308.31;;;14.61;100.00
20394;BME280;10356;50.544;9.642;2022-08-21T03:53:35;98313.03;;;14.58;100.00
20394;BME280;10356;50.544;9.642;2022-08-21T03:56:03;98310.56;;;14.56;100.00
20394;BME280;10356;50.544;9.642;2022-08-21T03:58:29;98313.31;;;14.55;100.00
20394;BME280;10356;50.544;9.642;2022-08-21T04:00:58;98318.84;;;14.52;100.00
20394;BME280;10356;50.544;9.642;2022-08-21T04:03:25;98314.84;;;14.48;100.00
20394;BME280;10356;50.544;9.642;2022-08-21T04:05:52;98319.13;;;14.49;100.00
20394;BME280;10356;50.544;9.642;2022-08-21T04:08:19;98322.72;;;14.48;100.00
20394;BME280;10356;50.544;9.642;2022-08-21T04:10:50;98324.13;;;14.42;100.00
20394;BME280;10356;50.544;9.642;2022-08-21T04:13:17;98325.22;;;14.40;100.00
20394;BME280;10356;50.544;9.642;2022-08-21T04:15:43;98328.41;;;14.34;100.00
20394;BME280;10356;50.544;9.642;2022-08-21T04:18:10;98331.28;;;14.30;100.00
20394;BME280;10356;50.544;9.642;2022-08-21T04:20:38;98330.59;;;14.28;100.00
20394;BME280;10356;50.544;9.642;2022-08-21T04:23:06;98337.66;;;14.28;100.00
20394;BME280;10356;50.544;9.642;2022-08-21T04:25:32;98345.59;;;14.26;100.00
20394;BME280;10356;50.544;9.642;2022-08-21T04:28:00;98348.53;;;14.23;100.00
20394;BME280;10356;50.544;9.642;2022-08-21T04:30:27;98347.69;;;14.23;100.00
20394;BME280;10356;50.544;9.642;2022-08-21T04:32:55;98351.13;;;14.23;100.00
20394;BME280;10356;50.544;9.642;2022-08-21T04:35:22;98350.16;;;14.24;100.00
20394;BME280;10356;50.544;9.642;2022-08-21T04:37:50;98360.25;;;14.19;100.00
20394;BME280;10356;50.544;9.642;2022-08-21T04:40:18;98355.53;;;14.23;100.00
20394;BME280;10356;50.544;9.642;2022-08-21T04:42:48;98367.28;;;14.28;100.00
20394;BME280;10356;50.544;9.642;2022-08-21T04:45:19;98361.94;;;14.30;100.00
20394;BME280;10356;50.544;9.642;2022-08-21T04:47:48;98367.44;;;14.37;100.00
20394;BME280;10356;50.544;9.642;2022-08-21T04:50:15;98376.97;;;14.38;100.00
20394;BME280;10356;50.544;9.642;2022-08-21T04:52:43;98366.63;;;14.36;100.00
20394;BME280;10356;50.544;9.642;2022-08-21T04:55:09;98372.56;;;14.38;100.00
20394;BME280;10356;50.544;9.642;2022-08-21T04:57:36;98361.91;;;14.40;100.00
20394;BME280;10356;50.544;9.642;2022-08-21T05:00:05;98374.47;;;14.46;100.00
20394;BME280;10356;50.544;9.642;2022-08-21T05:02:33;98372.38;;;14.49;100.00
20394;BME280;10356;50.544;9.642;2022-08-21T05:04:59;98378.75;;;14.56;100.00
20394;BME280;10356;50.544;9.642;2022-08-21T05:07:28;98377.34;;;14.62;100.00
20394;BME280;10356;50.544;9.642;2022-08-21T05:09:56;98379.00;;;14.72;100.00
20394;BME280;10356;50.544;9.642;2022-08-21T05:12:25;98385.47;;;14.78;100.00
20394;BME280;10356;50.544;9.642;2022-08-21T05:14:51;98380.47;;;14.84;100.00
20394;BME280;10356;50.544;9.642;2022-08-21T05:17:18;98382.66;;;14.89;100.00
20394;BME280;10356;50.544;9.642;2022-08-21T05:19:45;98385.28;;;14.98;100.00
20394;BME280;10356;50.544;9.642;2022-08-21T05:22:19;98387.75;;;15.00;100.00
20394;BME280;10356;50.544;9.642;2022-08-21T05:24:45;98386.91;;;14.99;100.00
20394;BME280;10356;50.544;9.642;2022-08-21T05:27:12;98389.78;;;15.06;100.00
20394;BME280;10356;50.544;9.642;2022-08-21T05:29:38;98391.06;;;15.02;100.00
20394;BME280;10356;50.544;9.642;2022-08-21T05:32:08;98391.44;;;15.07;100.00
20394;BME280;10356;50.544;9.642;2022-08-21T05:34:35;98388.28;;;15.03;100.00
20394;BME280;10356;50.544;9.642;2022-08-21T05:37:03;98389.78;;;15.06;100.00
20394;BME280;10356;50.544;9.642;2022-08-21T05:39:30;98383.28;;;15.10;100.00
20394;BME280;10356;50.544;9.642;2022-08-21T05:41:56;98385.03;;;15.19;100.00
20394;BME280;10356;50.544;9.642;2022-08-21T05:44:23;98380.56;;;15.29;100.00
20394;BME280;10356;50.544;9.642;2022-08-21T05:46:49;98389.09;;;15.41;100.00
20394;BME280;10356;50.544;9.642;2022-08-21T05:49:16;98377.91;;;15.48;100.00
20394;BME280;10356;50.544;9.642;2022-08-21T05:51:42;98380.94;;;15.53;100.00
20394;BME280;10356;50.544;9.642;2022-08-21T05:54:10;98383.66;;;15.61;100.00
20394;BME280;10356;50.544;9.642;2022-08-21T05:56:37;98384.44;;;15.71;100.00
20394;BME280;10356;50.544;9.642;2022-08-21T05:59:04;98381.41;;;15.66;100.00
20394;BME280;10356;50.544;9.642;2022-08-21T06:01:30;98381.06;;;15.79;100.00
20394;BME280;10356;50.544;9.642;2022-08-21T06:03:57;98385.19;;;15.81;100.00
20394;BME280;10356;50.544;9.642;2022-08-21T06:06:23;98378.75;;;15.93;100.00
20394;BME280;10356;50.544;9.642;2022-08-21T06:08:50;98385.94;;;15.91;100.00
20394;BME280;10356;50.544;9.642;2022-08-21T06:11:19;98389.03;;;16.05;100.00
20394;BME280;10356;50.544;9.642;2022-08-21T06:13:45;98380.69;;;15.91;100.00
20394;BME280;10356;50.544;9.642;2022-08-21T06:16:14;98388.59;;;15.91;100.00
20394;BME280;10356;50.544;9.642;2022-08-21T06:18:42;98388.25;;;15.94;100.00
20394;BME280;10356;50.544;9.642;2022-08-21T06:21:09;98382.41;;;16.18;100.00
20394;BME280;10356;50.544;9.642;2022-08-21T06:23:37;98383.38;;;16.35;100.00
20394;BME280;10356;50.544;9.642;2022-08-21T06:26:05;98385.56;;;16.39;100.00
20394;BME280;10356;50.544;9.642;2022-08-21T06:28:34;98389.84;;;16.23;100.00
20394;BME280;10356;50.544;9.642;2022-08-21T06:31:01;98394.75;;;16.18;100.00
20394;BME280;10356;50.544;9.642;2022-08-21T06:33:27;98395.19;;;16.31;100.00
20394;BME280;10356;50.544;9.642;2022-08-21T06:35:54;98392.03;;;16.45;100.00
20394;BME280;10356;50.544;9.642;2022-08-21T06:38:20;98386.31;;;16.67;100.00
20394;BME280;10356;50.544;9.642;2022-08-21T06:40:47;98395.25;;;16.74;100.00
20394;BME280;10356;50.544;9.642;2022-08-21T06:43:16;98392.47;;;17.01;100.00
20394;BME280;10356;50.544;9.642;2022-08-21T06:45:44;98400.41;;;17.09;100.00
20394;BME280;10356;50.544;9.642;2022-08-21T06:48:11;98392.88;;;17.14;100.00
20394;BME280;10356;50.544;9.642;2022-08-21T06:50:38;98394.50;;;17.41;100.00
20394;BME280;10356;50.544;9.642;2022-08-21T06:53:06;98390.81;;;17.59;100.00
20394;BME280;10356;50.544;9.642;2022-08-21T06:55:33;98392.34;;;17.78;98.65
20394;BME280;10356;50.544;9.642;2022-08-21T06:58:00;98384.69;;;18.09;96.70
20394;BME280;10356;50.544;9.642;2022-08-21T07:00:27;98390.44;;;18.04;95.59
20394;BME280;10356;50.544;9.642;2022-08-21T07:02:55;98389.00;;;18.34;93.47
20394;BME280;10356;50.544;9.642;2022-08-21T07:05:22;98391.81;;;18.40;92.98
20394;BME280;10356;50.544;9.642;2022-08-21T07:07:51;98392.47;;;18.83;91.60
20394;BME280;10356;50.544;9.642;2022-08-21T07:10:17;98390.97;;;19.12;91.65
20394;BME280;10356;50.544;9.642;2022-08-21T07:12:44;98385.25;;;19.48;90.20
20394;BME280;10356;50.544;9.642;2022-08-21T07:15:10;98394.19;;;19.85;88.08
20394;BME280;10356;50.544;9.642;2022-08-21T07:17:37;98383.50;;;20.01;86.66
20394;BME280;10356;50.544;9.642;2022-08-21T07:20:06;98386.63;;;20.05;86.47
20394;BME280;10356;50.544;9.642;2022-08-21T07:22:35;98384.56;;;20.15;85.01
20394;BME280;10356;50.544;9.642;2022-08-21T07:25:02;98375.84;;;20.06;85.42
20394;BME280;10356;50.544;9.642;2022-08-21T07:27:29;98383.91;;;20.21;85.10
20394;BME280;10356;50.544;9.642;2022-08-21T07:29:57;98379.31;;;20.38;83.67
20394;BME280;10356;50.544;9.642;2022-08-21T07:32:24;98381.16;;;20.74;81.01
20394;BME280;10356;50.544;9.642;2022-08-21T07:34:50;98376.88;;;20.88;81.89
20394;BME280;10356;50.544;9.642;2022-08-21T07:37:18;98379.78;;;21.16;78.41
20394;BME280;10356;50.544;9.642;2022-08-21T07:39:45;98376.03;;;21.39;76.44
20394;BME280;10356;50.544;9.642;2022-08-21T07:42:14;98376.53;;;21.79;75.21
20394;BME280;10356;50.544;9.642;2022-08-21T07:44:40;98372.31;;;21.99;73.15
20394;BME280;10356;50.544;9.642;2022-08-21T07:47:08;98372.69;;;22.17;73.25
20394;BME280;10356;50.544;9.642;2022-08-21T07:49:34;98365.66;;;21.88;76.14
20394;BME280;10356;50.544;9.642;2022-08-21T09:23:00;98300.94;;;27.01;45.83
20394;BME280;10356;50.544;9.642;2022-08-21T09:25:33;98300.16;;;26.76;46.20
20394;BME280;10356;50.544;9.642;2022-08-21T09:28:00;98292.41;;;26.43;46.68
20394;BME280;10356;50.544;9.642;2022-08-21T09:30:29;98301.22;;;25.81;43.92
20394;BME280;10356;50.544;9.642;2022-08-21T09:32:56;98287.53;;;26.02;41.95
20394;BME280;10356;50.544;9.642;2022-08-21T09:35:23;98282.09;;;26.46;41.83
20394;BME280;10356;50.544;9.642;2022-08-21T09:37:55;98285.69;;;27.01;39.81
20394;BME280;10356;50.544;9.642;2022-08-21T09:40:29;98280.66;;;27.11;37.33
20394;BME280;10356;50.544;9.642;2022-08-21T09:42:58;98284.09;;;27.18;38.26
20394;BME280;10356;50.544;9.642;2022-08-21T09:45:25;98284.59;;;27.63;39.09
20394;BME280;10356;50.544;9.642;2022-08-21T09:47:52;98287.31;;;28.04;39.92
20394;BME280;10356;50.544;9.642;2022-08-21T09:50:21;98284.91;;;27.85;38.36
20394;BME280;10356;50.544;9.642;2022-08-21T09:52:50;98283.56;;;27.76;39.08
20394;BME280;10356;50.544;9.642;2022-08-21T09:55:28;98278.03;;;27.77;39.37
20394;BME280;10356;50.544;9.642;2022-08-21T09:58:15;98282.91;;;28.10;40.06
20394;BME280;10356;50.544;9.642;2022-08-21T10:00:42;98285.41;;;28.23;39.63
20394;BME280;10356;50.544;9.642;2022-08-21T10:03:12;98281.38;;;28.55;38.57
20394;BME280;10356;50.544;9.642;2022-08-21T10:05:39;98275.59;;;28.17;39.72
20394;BME280;10356;50.544;9.642;2022-08-21T10:08:17;98281.88;;;27.33;42.18
20394;BME280;10356;50.544;9.642;2022-08-21T10:10:50;98276.72;;;27.50;40.86
20394;BME280;10356;50.544;9.642;2022-08-21T10:13:22;98273.88;;;26.91;41.79
20394;BME280;10356;50.544;9.642;2022-08-21T10:16:02;98282.97;;;26.40;42.32
20394;BME280;10356;50.544;9.642;2022-08-21T10:18:37;98273.63;;;26.25;43.56
20394;BME280;10356;50.544;9.642;2022-08-21T10:21:11;98269.25;;;26.30;43.88
20394;BME280;10356;50.544;9.642;2022-08-21T10:23:48;98270.38;;;26.72;42.73
20394;BME280;10356;50.544;9.642;2022-08-21T10:26:29;98265.34;;;27.18;41.06
20394;BME280;10356;50.544;9.642;2022-08-21T10:29:03;98257.50;;;28.01;41.48
20394;BME280;10356;50.544;9.642;2022-08-21T10:31:41;98254.66;;;28.95;38.99
20394;BME280;10356;50.544;9.642;2022-08-21T10:34:24;98258.63;;;29.16;38.78
20394;BME280;10356;50.544;9.642;2022-08-21T10:37:05;98251.47;;;29.33;39.12
20394;BME280;10356;50.544;9.642;2022-08-21T10:39:44;98254.34;;;29.43;37.69
20394;BME280;10356;50.544;9.642;2022-08-21T10:42:31;98254.34;;;29.43;36.76
20394;BME280;10356;50.544;9.642;2022-08-21T10:45:17;98251.44;;;29.44;37.86
20394;BME280;10356;50.544;9.642;2022-08-21T10:47:48;98251.88;;;29.41;36.06
20394;BME280;10356;50.544;9.642;2022-08-21T10:50:27;98252.69;;;28.79;37.30
20394;BME280;10356;50.544;9.642;2022-08-21T10:53:07;98239.03;;;28.34;37.94
20394;BME280;10356;50.544;9.642;2022-08-21T10:55:40;98238.59;;;27.96;38.25
20394;BME280;10356;50.544;9.642;2022-08-21T10:58:11;98235.84;;;27.73;38.19
20394;BME280;10356;50.544;9.642;2022-08-21T11:00:40;98235.56;;;27.63;39.40
20394;BME280;10356;50.544;9.642;2022-08-21T11:03:12;98237.34;;;26.60;40.03
20394;BME280;10356;50.544;9.642;2022-08-21T11:05:42;98223.72;;;27.22;39.30
20394;BME280;10356;50.544;9.642;2022-08-21T11:08:15;98230.75;;;27.94;38.59
20394;BME280;10356;50.544;9.642;2022-08-21T11:10:47;98227.63;;;28.50;37.07
20394;BME280;10356;50.544;9.642;2022-08-21T11:13:22;98223.88;;;28.86;36.34
20394;BME280;10356;50.544;9.642;2022-08-21T11:15:56;98225.75;;;28.85;35.91
20394;BME280;10356;50.544;9.642;2022-08-21T11:18:27;98224.34;;;28.94;35.65
20394;BME280;10356;50.544;9.642;2022-08-21T11:21:02;98218.69;;;29.31;35.69
20394;BME280;10356;50.544;9.642;2022-08-21T11:23:37;98226.25;;;29.62;34.49
20394;BME280;10356;50.544;9.642;2022-08-21T11:26:09;98213.16;;;29.94;34.80
20394;BME280;10356;50.544;9.642;2022-08-21T11:28:48;98212.81;;;29.73;34.77
20394;BME280;10356;50.544;9.642;2022-08-21T11:31:31;98215.84;;;29.65;34.90
20394;BME280;10356;50.544;9.642;2022-08-21T11:34:12;98210.78;;;29.97;34.06
20394;BME280;10356;50.544;9.642;2022-08-21T11:36:54;98200.50;;;29.94;34.36
20394;BME280;10356;50.544;9.642;2022-08-21T11:39:29;98199.53;;;29.27;36.66
20394;BME280;10356;50.544;9.642;2022-08-21T11:42:04;98191.53;;;29.04;34.97
20394;BME280;10356;50.544;9.642;2022-08-21T11:44:46;98195.56;;;29.30;35.64
20394;BME280;10356;50.544;9.642;2022-08-21T11:47:19;98194.25;;;29.32;35.59
20394;BME280;10356;50.544;9.642;2022-08-21T11:50:00;98200.19;;;28.94;35.31
20394;BME280;10356;50.544;9.642;2022-08-21T11:52:33;98203.59;;;29.58;34.45
20394;BME280;10356;50.544;9.642;2022-08-21T11:55:06;98196.34;;;29.87;33.53
20394;BME280;10356;50.544;9.642;2022-08-21T11:57:36;98195.25;;;30.32;34.50
20394;BME280;10356;50.544;9.642;2022-08-21T12:00:12;98200.28;;;30.12;34.29
20394;BME280;10356;50.544;9.642;2022-08-21T12:02:43;98198.88;;;30.26;33.23
20394;BME280;10356;50.544;9.642;2022-08-21T12:05:22;98199.63;;;30.22;33.72
20394;BME280;10356;50.544;9.642;2022-08-21T12:08:02;98199.22;;;29.97;33.64
20394;BME280;10356;50.544;9.642;2022-08-21T12:10:32;98195.13;;;29.94;33.35
20394;BME280;10356;50.544;9.642;2022-08-21T12:13:06;98190.81;;;30.26;33.52
20394;BME280;10356;50.544;9.642;2022-08-21T12:15:35;98189.44;;;30.07;32.39
20394;BME280;10356;50.544;9.642;2022-08-21T12:18:05;98188.06;;;30.21;32.51
20394;BME280;10356;50.544;9.642;2022-08-21T12:20:42;98184.19;;;28.99;34.41
20394;BME280;10356;50.544;9.642;2022-08-21T12:23:19;98176.41;;;29.99;33.51
20394;BME280;10356;50.544;9.642;2022-08-21T12:26:01;98183.00;;;30.08;32.35
20394;BME280;10356;50.544;9.642;2022-08-21T12:28:29;98179.44;;;30.19;31.61
20394;BME280;10356;50.544;9.642;2022-08-21T12:30:58;98182.19;;;30.24;31.93
20394;BME280;10356;50.544;9.642;2022-08-21T12:33:27;98179.34;;;29.98;32.92
20394;BME280;10356;50.544;9.642;2022-08-21T12:36:03;98170.88;;;30.06;32.47
20394;BME280;10356;50.544;9.642;2022-08-21T12:38:33;98173.47;;;30.17;32.97
20394;BME280;10356;50.544;9.642;2022-08-21T12:41:07;98165.50;;;30.06;33.23
20394;BME280;10356;50.544;9.642;2022-08-21T12:43:40;98169.81;;;30.07;32.34
20394;BME280;10356;50.544;9.642;2022-08-21T12:46:15;98165.56;;;30.11;33.00
20394;BME280;10356;50.544;9.642;2022-08-21T12:48:48;98168.84;;;30.13;32.13
20394;BME280;10356;50.544;9.642;2022-08-21T12:51:21;98174.19;;;29.96;31.94
20394;BME280;10356;50.544;9.642;2022-08-21T12:53:51;98172.19;;;30.03;32.17
20394;BME280;10356;50.544;9.642;2022-08-21T12:56:20;98168.84;;;30.13;31.31
20394;BME280;10356;50.544;9.642;2022-08-21T12:58:51;98169.00;;;30.39;31.74
20394;BME280;10356;50.544;9.642;2022-08-21T13:01:23;98162.13;;;30.48;31.60
20394;BME280;10356;50.544;9.642;2022-08-21T13:03:51;98161.50;;;30.08;31.52
20394;BME280;10356;50.544;9.642;2022-08-21T13:06:20;98154.13;;;30.53;32.31
20394;BME280;10356;50.544;9.642;2022-08-21T13:08:51;98158.41;;;30.33;31.38
20394;BME280;10356;50.544;9.642;2022-08-21T13:11:23;98153.00;;;30.16;32.20
20394;BME280;10356;50.544;9.642;2022-08-21T13:13:51;98157.53;;;29.21;32.92
20394;BME280;10356;50.544;9.642;2022-08-21T13:16:22;98150.63;;;29.70;33.90
20394;BME280;10356;50.544;9.642;2022-08-21T13:18:57;98153.88;;;29.83;32.93
20394;BME280;10356;50.544;9.642;2022-08-21T13:21:28;98150.00;;;29.35;35.17
20394;BME280;10356;50.544;9.642;2022-08-21T13:24:11;98149.81;;;29.13;34.16
20394;BME280;10356;50.544;9.642;2022-08-21T13:26:39;98155.97;;;29.37;32.85
20394;BME280;10356;50.544;9.642;2022-08-21T13:29:07;98146.22;;;29.64;33.81
20394;BME280;10356;50.544;9.642;2022-08-21T13:31:38;98151.41;;;28.97;34.38
20394;BME280;10356;50.544;9.642;2022-08-21T13:34:08;98149.63;;;29.15;33.45
20394;BME280;10356;50.544;9.642;2022-08-21T13:36:40;98154.34;;;29.97;32.31
20394;BME280;10356;50.544;9.642;2022-08-21T13:39:09;98146.53;;;30.29;30.79
20394;BME280;10356;50.544;9.642;2022-08-21T13:41:39;98144.00;;;30.60;30.67
20394;BME280;10356;50.544;9.642;2022-08-21T13:44:15;98140.28;;;30.45;31.13
20394;BME280;10356;50.544;9.642;2022-08-21T13:46:46;98139.41;;;30.39;30.42
20394;BME280;10356;50.544;9.642;2022-08-21T13:49:15;98142.69;;;30.41;30.92
20394;BME280;10356;50.544;9.642;2022-08-21T13:51:42;98142.78;;;30.30;30.22
20394;BME280;10356;50.544;9.642;2022-08-21T13:54:15;98145.69;;;30.66;30.75
20394;BME280;10356;50.544;9.642;2022-08-21T13:56:43;98138.16;;;30.47;30.80
20394;BME280;10356;50.544;9.642;2022-08-21T13:59:10;98134.06;;;30.83;30.39
20394;BME280;10356;50.544;9.642;2022-08-21T14:01:38;98130.31;;;30.84;30.60
20394;BME280;10356;50.544;9.642;2022-08-21T14:04:20;98138.13;;;30.25;31.20
20394;BME280;10356;50.544;9.642;2022-08-21T14:06:48;98136.63;;;29.68;32.35
20394;BME280;10356;50.544;9.642;2022-08-21T14:09:24;98139.84;;;29.81;31.46
20394;BME280;10356;50.544;9.642;2022-08-21T14:11:53;98123.38;;;30.11;30.78
20394;BME280;10356;50.544;9.642;2022-08-21T14:14:23;98125.13;;;30.55;30.81
20394;BME280;10356;50.544;9.642;2022-08-21T14:16:54;98130.84;;;30.42;30.32
20394;BME280;10356;50.544;9.642;2022-08-21T14:19:24;98125.09;;;29.23;32.02
20394;BME280;10356;50.544;9.642;2022-08-21T14:21:51;98123.72;;;29.81;31.38
20394;BME280;10356;50.544;9.642;2022-08-21T14:24:26;98115.72;;;30.20;31.54
20394;BME280;10356;50.544;9.642;2022-08-21T14:26:55;98121.84;;;29.99;30.84
20394;BME280;10356;50.544;9.642;2022-08-21T14:29:25;98117.34;;;30.04;31.13
20394;BME280;10356;50.544;9.642;2022-08-21T14:31:56;98112.16;;;29.81;31.04
20394;BME280;10356;50.544;9.642;2022-08-21T14:34:27;98111.84;;;29.77;30.59
20394;BME280;10356;50.544;9.642;2022-08-21T14:36:55;98116.47;;;29.37;30.46
20394;BME280;10356;50.544;9.642;2022-08-21T14:39:22;98108.19;;;29.55;31.13